Time;durP1;ratioP1;P1;durP2;ratioP2;P2;SDS_P1;SDS_P2;PMS_P1;PMS_P2;Temp;Humidity;BMP_temperature;BMP_pressure;BME280_temperature;BME280_humidity;BME280_pressure;Samples;Min_cycle;Max_cycle;Signal;HPM_P1;HPM_P2
2024/03/13 00:01:36;;;;;;;33.40;19.12;;;;;;;;;;752243;186;816655;-60
2024/03/13 00:04:04;;;;;;;41.67;21.87;;;;;;;;;;751191;183;916612;-59
2024/03/13 00:06:28;;;;;;;33.73;20.43;;;;;;;;;;751476;183;819128;-60
2024/03/13 00:08:55;;;;;;;28.70;19.37;;;;;;;;;;752046;185;816925;-59
2024/03/13 00:11:20;;;;;;;29.63;19.17;;;;;;;;;;751512;185;816210;-58
2024/03/13 00:13:45;;;;;;;29.43;19.00;;;;;;;;;;748299;183;919329;-60
2024/03/13 00:16:12;;;;;;;30.83;19.53;;;;;;;;;;755894;186;917443;-58
2024/03/13 00:18:37;;;;;;;30.80;20.60;;;;;;;;;;753579;183;919611;-58
2024/03/13 00:21:03;;;;;;;30.02;19.60;;;;;;;;;;751655;183;916444;-60
2024/03/13 00:23:29;;;;;;;32.33;20.40;;;;;;;;;;753398;186;919886;-59
2024/03/13 00:25:56;;;;;;;30.20;18.47;;;;;;;;;;749718;186;918485;-58
2024/03/13 00:28:21;;;;;;;28.47;18.40;;;;;;;;;;752381;186;918177;-60
2024/03/13 00:30:47;;;;;;;29.83;18.03;;;;;;;;;;750625;186;918693;-60
2024/03/13 00:33:13;;;;;;;25.55;16.55;;;;;;;;;;751858;186;918553;-58
2024/03/13 00:35:39;;;;;;;32.87;19.40;;;;;;;;;;748647;185;926012;-60
2024/03/13 00:38:05;;;;;;;32.53;19.13;;;;;;;;;;748928;186;919352;-60
2024/03/13 00:40:30;;;;;;;31.23;20.10;;;;;;;;;;755772;186;919428;-58
2024/03/13 00:42:56;;;;;;;30.47;17.67;;;;;;;;;;749996;186;919300;-59
2024/03/13 00:45:22;;;;;;;32.63;20.10;;;;;;;;;;752862;186;920856;-59
2024/03/13 00:47:48;;;;;;;33.80;20.37;;;;;;;;;;754970;186;913861;-59
2024/03/13 00:50:15;;;;;;;30.73;19.17;;;;;;;;;;749650;186;920321;-59
2024/03/13 00:52:39;;;;;;;32.50;18.95;;;;;;;;;;750369;186;917832;-58
2024/03/13 00:55:10;;;;;;;29.80;19.90;;;;;;;;;;757899;186;765470;-58
2024/03/13 00:57:31;;;;;;;31.97;18.77;;;;;;;;;;746398;186;919571;-60
2024/03/13 00:59:58;;;;;;;30.97;19.00;;;;;;;;;;747558;186;920169;-58
2024/03/13 01:02:23;;;;;;;29.97;18.87;;;;;;;;;;748911;186;919227;-58
2024/03/13 01:04:49;;;;;;;28.27;17.97;;;;;;;;;;756620;186;918405;-58
2024/03/13 01:07:15;;;;;;;30.63;19.67;;;;;;;;;;754343;185;924351;-58
2024/03/13 01:09:41;;;;;;;34.23;19.00;;;;;;;;;;752021;185;919368;-60
2024/03/13 01:12:06;;;;;;;27.77;17.67;;;;;;;;;;755455;185;818159;-58
2024/03/13 01:14:32;;;;;;;29.90;17.90;;;;;;;;;;750667;186;919354;-60
2024/03/13 01:17:00;;;;;;;28.00;18.90;;;;;;;;;;747770;186;922018;-60
2024/03/13 01:19:30;;;;;;;29.03;18.23;;;;;;;;;;754968;186;916296;-60
2024/03/13 01:21:54;;;;;;;31.77;19.73;;;;;;;;;;752453;186;916926;-59
2024/03/13 01:24:18;;;;;;;34.13;18.77;;;;;;;;;;751488;186;912338;-58
2024/03/13 01:26:45;;;;;;;33.95;20.17;;;;;;;;;;754045;185;815531;-58
2024/03/13 01:29:10;;;;;;;29.83;18.80;;;;;;;;;;756825;183;938365;-58
2024/03/13 01:31:36;;;;;;;30.17;17.40;;;;;;;;;;749876;186;918388;-58
2024/03/13 01:34:03;;;;;;;34.30;19.63;;;;;;;;;;750609;183;919317;-59
2024/03/13 01:39:12;;;;;;;31.60;18.20;;;;;;;;;;749282;186;919282;-58
2024/03/13 01:57:12;;;;;;;27.20;16.90;;;;;;;;;;754414;186;921679;-58
2024/03/13 02:04:31;;;;;;;36.22;19.20;;;;;;;;;;747656;186;912620;-58
2024/03/13 02:06:59;;;;;;;32.20;19.67;;;;;;;;;;748494;186;906209;-59
2024/03/13 02:09:23;;;;;;;29.20;19.33;;;;;;;;;;750594;186;817583;-58
2024/03/13 02:11:49;;;;;;;31.40;18.93;;;;;;;;;;750778;186;818369;-59
2024/03/13 02:14:14;;;;;;;29.80;20.03;;;;;;;;;;757526;186;717574;-58
2024/03/13 02:16:41;;;;;;;29.33;17.47;;;;;;;;;;753136;183;893310;-59
2024/03/13 02:19:07;;;;;;;27.97;17.60;;;;;;;;;;750815;183;818913;-59
2024/03/13 02:21:32;;;;;;;28.50;19.73;;;;;;;;;;758133;185;923526;-58
2024/03/13 02:23:58;;;;;;;32.73;19.00;;;;;;;;;;753643;183;866664;-60
2024/03/13 02:26:25;;;;;;;31.97;19.10;;;;;;;;;;751254;185;919504;-58
2024/03/13 02:28:51;;;;;;;26.13;18.00;;;;;;;;;;756062;185;922588;-59
2024/03/13 02:31:15;;;;;;;28.67;18.00;;;;;;;;;;750333;186;920420;-60
2024/03/13 02:33:43;;;;;;;30.67;17.30;;;;;;;;;;750527;186;921581;-57
2024/03/13 02:36:07;;;;;;;34.87;19.10;;;;;;;;;;752455;186;918456;-58
2024/03/13 02:38:33;;;;;;;27.87;18.67;;;;;;;;;;756552;185;924852;-58
2024/03/13 02:40:59;;;;;;;35.40;21.80;;;;;;;;;;750270;186;922390;-59
2024/03/13 02:43:25;;;;;;;37.53;20.57;;;;;;;;;;746910;186;919372;-60
2024/03/13 02:45:50;;;;;;;30.10;18.42;;;;;;;;;;753866;184;894650;-60
2024/03/13 02:48:16;;;;;;;24.17;16.60;;;;;;;;;;745125;186;916644;-61
2024/03/13 02:50:42;;;;;;;30.07;18.57;;;;;;;;;;749758;186;915518;-60
2024/03/13 02:53:08;;;;;;;27.10;16.17;;;;;;;;;;756326;186;885827;-60
2024/03/13 02:55:35;;;;;;;24.50;15.10;;;;;;;;;;746489;186;904257;-58
2024/03/13 02:58:01;;;;;;;27.73;16.57;;;;;;;;;;747391;186;921148;-58
2024/03/13 03:00:27;;;;;;;22.33;14.67;;;;;;;;;;749531;186;918767;-59
2024/03/13 03:02:56;;;;;;;28.03;16.13;;;;;;;;;;757924;186;860884;-60
2024/03/13 03:05:21;;;;;;;28.27;15.00;;;;;;;;;;752627;185;814899;-61
2024/03/13 03:07:47;;;;;;;30.27;17.53;;;;;;;;;;751042;186;873532;-58
2024/03/13 03:10:13;;;;;;;26.87;17.97;;;;;;;;;;756097;186;814861;-58
2024/03/13 03:12:42;;;;;;;28.40;17.30;;;;;;;;;;751345;186;815349;-61
2024/03/13 03:15:07;;;;;;;21.57;15.93;;;;;;;;;;752757;186;883102;-58
2024/03/13 03:17:33;;;;;;;24.93;20.50;;;;;;;;;;749992;186;815570;-58
2024/03/13 03:19:59;;;;;;;27.10;16.77;;;;;;;;;;748870;184;880121;-58
2024/03/13 03:22:24;;;;;;;28.93;16.53;;;;;;;;;;750986;185;928574;-58
2024/03/13 03:24:50;;;;;;;22.37;15.50;;;;;;;;;;748476;186;919917;-58
2024/03/13 03:27:16;;;;;;;23.27;15.65;;;;;;;;;;753754;186;920788;-60
2024/03/13 03:29:42;;;;;;;25.40;15.40;;;;;;;;;;750364;185;918999;-58
2024/03/13 03:32:08;;;;;;;21.17;12.70;;;;;;;;;;754511;185;916807;-58
2024/03/13 03:34:34;;;;;;;20.50;13.00;;;;;;;;;;757162;186;817461;-58
2024/03/13 03:37:01;;;;;;;19.13;12.40;;;;;;;;;;751579;185;920395;-59
2024/03/13 03:39:27;;;;;;;18.50;13.47;;;;;;;;;;753426;185;915443;-60
2024/03/13 03:41:53;;;;;;;26.87;14.23;;;;;;;;;;751742;186;911890;-60
2024/03/13 03:44:18;;;;;;;24.50;14.40;;;;;;;;;;749918;186;913973;-60
2024/03/13 03:46:44;;;;;;;24.40;15.60;;;;;;;;;;747537;184;916214;-57
2024/03/13 03:49:10;;;;;;;27.30;16.00;;;;;;;;;;748998;186;939666;-58
2024/03/13 03:51:36;;;;;;;29.27;17.50;;;;;;;;;;757175;186;899960;-58
2024/03/13 03:54:02;;;;;;;30.37;17.83;;;;;;;;;;750220;186;919098;-58
2024/03/13 03:56:28;;;;;;;33.37;18.90;;;;;;;;;;751576;186;844064;-58
2024/03/13 03:58:54;;;;;;;23.90;15.43;;;;;;;;;;750062;187;988795;-59
2024/03/13 04:01:19;;;;;;;26.50;17.87;;;;;;;;;;751715;185;817165;-58
2024/03/13 04:03:47;;;;;;;29.97;18.20;;;;;;;;;;747966;183;922066;-57
2024/03/13 04:06:11;;;;;;;30.83;17.43;;;;;;;;;;747469;186;912557;-59
2024/03/13 04:08:37;;;;;;;23.87;15.93;;;;;;;;;;752959;186;812063;-60
2024/03/13 04:11:03;;;;;;;22.00;14.67;;;;;;;;;;737585;186;894618;-58
2024/03/13 04:13:29;;;;;;;31.63;18.17;;;;;;;;;;741119;184;922620;-60
2024/03/13 04:15:56;;;;;;;23.40;15.67;;;;;;;;;;755890;186;918591;-60
2024/03/13 04:18:20;;;;;;;29.00;17.03;;;;;;;;;;748433;186;921375;-60
2024/03/13 04:20:46;;;;;;;30.00;16.37;;;;;;;;;;749480;186;920889;-60
2024/03/13 04:23:13;;;;;;;25.58;16.95;;;;;;;;;;754795;186;911815;-60
2024/03/13 04:25:38;;;;;;;33.33;17.60;;;;;;;;;;749695;186;916523;-60
2024/03/13 04:28:04;;;;;;;22.00;16.50;;;;;;;;;;753499;186;822233;-59
2024/03/13 04:30:30;;;;;;;27.73;17.83;;;;;;;;;;755530;186;823942;-59
2024/03/13 04:32:57;;;;;;;30.73;19.10;;;;;;;;;;752209;186;909638;-59
2024/03/13 04:35:21;;;;;;;26.73;15.73;;;;;;;;;;749574;186;819689;-59
2024/03/13 04:37:49;;;;;;;24.77;15.30;;;;;;;;;;749391;186;816748;-59
2024/03/13 04:40:13;;;;;;;28.40;17.40;;;;;;;;;;754864;186;918075;-58
2024/03/13 04:42:39;;;;;;;27.30;16.20;;;;;;;;;;753041;184;888073;-57
2024/03/13 04:45:06;;;;;;;23.62;16.55;;;;;;;;;;752621;186;918967;-57
2024/03/13 04:47:31;;;;;;;26.10;15.97;;;;;;;;;;756871;186;788975;-57
2024/03/13 04:49:57;;;;;;;26.00;18.90;;;;;;;;;;752515;185;882198;-57
2024/03/13 04:52:23;;;;;;;26.43;17.40;;;;;;;;;;753414;186;844988;-60
2024/03/13 04:54:48;;;;;;;25.43;18.20;;;;;;;;;;756574;186;919296;-57
2024/03/13 04:57:14;;;;;;;22.00;15.70;;;;;;;;;;747624;186;920010;-59
2024/03/13 04:59:40;;;;;;;25.97;16.17;;;;;;;;;;747132;183;930425;-59
2024/03/13 05:02:07;;;;;;;24.70;15.80;;;;;;;;;;747967;186;816043;-59
2024/03/13 05:04:32;;;;;;;23.33;15.60;;;;;;;;;;756515;186;821068;-59
2024/03/13 05:07:01;;;;;;;23.65;14.82;;;;;;;;;;750717;186;917665;-59
2024/03/13 05:09:23;;;;;;;19.23;13.57;;;;;;;;;;751031;186;891320;-59
2024/03/13 05:11:49;;;;;;;24.50;16.27;;;;;;;;;;755282;183;919660;-57
2024/03/13 05:14:15;;;;;;;24.65;15.73;;;;;;;;;;751327;186;834129;-57
2024/03/13 05:16:45;;;;;;;20.40;13.87;;;;;;;;;;751720;186;845695;-58
2024/03/13 05:19:07;;;;;;;26.77;16.62;;;;;;;;;;756168;183;824759;-60
2024/03/13 05:21:33;;;;;;;27.03;16.40;;;;;;;;;;747337;185;922160;-57
2024/03/13 05:23:59;;;;;;;26.23;16.20;;;;;;;;;;747386;186;941523;-57
2024/03/13 05:26:27;;;;;;;24.80;15.70;;;;;;;;;;749103;186;892877;-57
2024/03/13 05:28:50;;;;;;;23.67;16.70;;;;;;;;;;752372;183;892517;-58
2024/03/13 05:31:16;;;;;;;22.40;14.40;;;;;;;;;;742861;184;759632;-59
2024/03/13 05:33:42;;;;;;;59.40;18.60;;;;;;;;;;751842;186;918250;-59
2024/03/13 05:36:11;;;;;;;32.60;15.17;;;;;;;;;;757119;186;794384;-57
2024/03/13 05:38:34;;;;;;;21.63;14.77;;;;;;;;;;752681;186;917173;-57
2024/03/13 05:41:00;;;;;;;19.87;13.00;;;;;;;;;;756718;186;618193;-57
2024/03/13 05:43:26;;;;;;;21.37;14.70;;;;;;;;;;757058;186;627721;-59
2024/03/13 05:45:51;;;;;;;20.23;13.80;;;;;;;;;;755200;186;618864;-57
2024/03/13 05:48:18;;;;;;;20.60;14.90;;;;;;;;;;751623;186;625475;-57
2024/03/13 05:50:43;;;;;;;20.43;13.30;;;;;;;;;;754418;186;624036;-58
2024/03/13 05:53:09;;;;;;;22.53;15.17;;;;;;;;;;755575;185;630938;-59
2024/03/13 05:55:35;;;;;;;22.60;15.80;;;;;;;;;;754237;185;908164;-60
2024/03/13 05:58:00;;;;;;;24.47;16.17;;;;;;;;;;751425;185;918959;-58
2024/03/13 06:00:27;;;;;;;25.10;14.70;;;;;;;;;;756657;186;920297;-57
2024/03/13 06:02:52;;;;;;;25.60;16.67;;;;;;;;;;752172;186;911321;-57
2024/03/13 06:05:18;;;;;;;22.97;15.00;;;;;;;;;;751924;186;918336;-57
2024/03/13 06:07:46;;;;;;;21.03;15.27;;;;;;;;;;756281;185;1016983;-57
2024/03/13 06:10:10;;;;;;;25.13;15.97;;;;;;;;;;751048;183;786835;-57
2024/03/13 06:12:36;;;;;;;26.33;18.60;;;;;;;;;;751651;186;919485;-57
2024/03/13 06:15:06;;;;;;;28.07;17.83;;;;;;;;;;758216;186;816672;-58
2024/03/13 06:17:28;;;;;;;27.70;18.13;;;;;;;;;;750943;183;842744;-57
2024/03/13 06:19:54;;;;;;;30.60;19.37;;;;;;;;;;750441;186;852664;-58
2024/03/13 06:22:20;;;;;;;29.30;19.23;;;;;;;;;;751845;186;918437;-59
2024/03/13 06:24:46;;;;;;;33.23;19.20;;;;;;;;;;755440;186;921791;-57
2024/03/13 06:27:15;;;;;;;29.30;17.80;;;;;;;;;;753323;186;907628;-60
2024/03/13 06:32:09;;;;;;;28.10;19.03;;;;;;;;;;745531;186;916994;-60
2024/03/13 06:34:35;;;;;;;31.20;21.40;;;;;;;;;;733848;188;870513;-59
2024/03/13 06:37:01;;;;;;;28.57;17.67;;;;;;;;;;745638;184;913317;-57
2024/03/13 06:39:26;;;;;;;29.37;18.73;;;;;;;;;;750428;186;918850;-60
2024/03/13 06:41:52;;;;;;;28.13;17.93;;;;;;;;;;748305;185;942721;-60
2024/03/13 06:44:18;;;;;;;28.70;18.40;;;;;;;;;;746804;183;941559;-59
2024/03/13 06:46:45;;;;;;;28.60;18.80;;;;;;;;;;747212;186;918433;-60
2024/03/13 06:49:10;;;;;;;29.27;18.87;;;;;;;;;;755307;186;817577;-57
2024/03/13 06:51:36;;;;;;;29.23;18.87;;;;;;;;;;751160;186;812089;-60
2024/03/13 06:54:02;;;;;;;30.67;18.77;;;;;;;;;;747514;184;918364;-57
2024/03/13 06:56:27;;;;;;;34.60;19.90;;;;;;;;;;749924;186;922240;-57
2024/03/13 06:58:55;;;;;;;28.07;18.93;;;;;;;;;;752187;186;819614;-57
2024/03/13 07:01:20;;;;;;;33.97;20.30;;;;;;;;;;752903;185;816178;-57
2024/03/13 07:03:46;;;;;;;30.25;20.50;;;;;;;;;;752235;186;919216;-59
2024/03/13 07:06:12;;;;;;;31.70;19.90;;;;;;;;;;747307;186;815955;-59
2024/03/13 07:08:38;;;;;;;30.60;20.97;;;;;;;;;;738167;185;918208;-57
2024/03/13 07:11:04;;;;;;;30.23;20.57;;;;;;;;;;752395;186;916868;-58
2024/03/13 07:13:29;;;;;;;29.53;19.70;;;;;;;;;;750745;185;923622;-58
2024/03/13 07:15:56;;;;;;;27.97;18.13;;;;;;;;;;752212;186;919154;-57
2024/03/13 07:18:21;;;;;;;37.83;20.27;;;;;;;;;;749215;183;923278;-59
2024/03/13 07:20:47;;;;;;;28.13;18.17;;;;;;;;;;755181;186;917418;-59
2024/03/13 07:23:13;;;;;;;27.77;18.03;;;;;;;;;;748784;186;916493;-59
2024/03/13 07:25:38;;;;;;;24.90;18.30;;;;;;;;;;750242;186;918671;-59
2024/03/13 07:28:08;;;;;;;30.37;17.90;;;;;;;;;;757566;186;921674;-60
2024/03/13 07:30:30;;;;;;;25.70;18.57;;;;;;;;;;747147;186;920361;-58
2024/03/13 07:32:56;;;;;;;25.40;16.70;;;;;;;;;;747877;186;919332;-57
2024/03/13 07:35:24;;;;;;;25.60;15.07;;;;;;;;;;748390;186;891392;-58
2024/03/13 07:37:48;;;;;;;22.10;13.80;;;;;;;;;;755256;186;915678;-58
2024/03/13 07:40:14;;;;;;;20.90;15.07;;;;;;;;;;748843;186;915922;-57
2024/03/13 07:42:41;;;;;;;25.37;16.27;;;;;;;;;;750052;186;921980;-58
2024/03/13 07:45:06;;;;;;;19.47;13.73;;;;;;;;;;758708;185;812225;-58
2024/03/13 07:47:32;;;;;;;20.73;15.50;;;;;;;;;;752937;186;805478;-60
2024/03/13 07:49:58;;;;;;;20.10;14.50;;;;;;;;;;750920;186;919008;-60
2024/03/13 07:52:24;;;;;;;25.17;14.97;;;;;;;;;;753591;183;911201;-60
2024/03/13 07:54:49;;;;;;;19.90;15.43;;;;;;;;;;750033;184;906585;-61
2024/03/13 07:57:16;;;;;;;25.47;14.57;;;;;;;;;;749709;184;817912;-62
2024/03/13 07:59:43;;;;;;;19.07;14.00;;;;;;;;;;749491;184;925074;-60
2024/03/13 08:02:07;;;;;;;22.00;15.10;;;;;;;;;;746808;186;817413;-60
2024/03/13 08:04:36;;;;;;;22.00;12.23;;;;;;;;;;753549;184;920828;-59
2024/03/13 08:06:59;;;;;;;24.43;15.83;;;;;;;;;;752143;186;796827;-61
2024/03/13 08:09:28;;;;;;;20.90;13.88;;;;;;;;;;754755;186;771306;-58
2024/03/13 08:11:50;;;;;;;17.30;12.97;;;;;;;;;;752801;186;848955;-61
2024/03/13 08:14:16;;;;;;;20.67;15.53;;;;;;;;;;748609;186;879485;-60
2024/03/13 08:16:42;;;;;;;19.43;15.17;;;;;;;;;;755802;185;919034;-61
2024/03/13 08:19:08;;;;;;;25.03;14.20;;;;;;;;;;750308;186;916535;-58
2024/03/13 08:21:34;;;;;;;21.23;14.90;;;;;;;;;;749651;185;916345;-58
2024/03/13 08:24:00;;;;;;;21.43;13.90;;;;;;;;;;751462;185;920985;-58
2024/03/13 08:26:25;;;;;;;20.63;15.87;;;;;;;;;;752702;186;865499;-59
2024/03/13 08:28:51;;;;;;;19.95;13.68;;;;;;;;;;749659;186;915408;-60
2024/03/13 08:31:18;;;;;;;21.27;13.33;;;;;;;;;;750560;184;917649;-61
2024/03/13 08:33:43;;;;;;;18.07;12.03;;;;;;;;;;756187;186;868530;-61
2024/03/13 08:36:09;;;;;;;20.53;15.20;;;;;;;;;;748345;186;918114;-60
2024/03/13 08:38:35;;;;;;;20.13;14.53;;;;;;;;;;748218;184;815636;-60
2024/03/13 08:41:01;;;;;;;20.58;13.82;;;;;;;;;;754235;185;847955;-61
2024/03/13 08:43:27;;;;;;;20.90;13.33;;;;;;;;;;749936;186;818057;-62
2024/03/13 08:45:53;;;;;;;21.90;14.10;;;;;;;;;;750518;186;805513;-61
2024/03/13 08:48:18;;;;;;;18.80;10.93;;;;;;;;;;755139;184;917665;-61
2024/03/13 08:50:44;;;;;;;16.70;10.47;;;;;;;;;;746436;186;809770;-61
2024/03/13 08:53:14;;;;;;;25.27;14.87;;;;;;;;;;749069;184;891180;-61
2024/03/13 08:55:36;;;;;;;19.37;13.37;;;;;;;;;;747677;186;919615;-60
2024/03/13 08:58:02;;;;;;;14.57;8.73;;;;;;;;;;755523;185;919107;-61
2024/03/13 09:00:28;;;;;;;21.60;12.30;;;;;;;;;;751552;186;918328;-58
2024/03/13 09:02:57;;;;;;;18.23;12.17;;;;;;;;;;751069;186;895232;-58
2024/03/13 09:05:20;;;;;;;17.97;12.70;;;;;;;;;;756188;186;900388;-61
2024/03/13 09:07:46;;;;;;;19.93;12.80;;;;;;;;;;752982;186;817140;-59
2024/03/13 09:10:12;;;;;;;21.20;14.30;;;;;;;;;;750006;186;920431;-61
2024/03/13 09:12:38;;;;;;;24.30;14.80;;;;;;;;;;754208;186;817904;-61
2024/03/13 09:15:05;;;;;;;20.70;11.87;;;;;;;;;;750798;185;889806;-60
2024/03/13 09:17:30;;;;;;;24.23;14.80;;;;;;;;;;749229;186;919392;-60
2024/03/13 09:19:56;;;;;;;20.67;13.77;;;;;;;;;;749580;186;918646;-58
2024/03/13 09:22:22;;;;;;;20.50;13.63;;;;;;;;;;757743;186;819540;-58
2024/03/13 09:24:47;;;;;;;22.37;11.90;;;;;;;;;;748924;186;920103;-58
2024/03/13 09:27:13;;;;;;;17.37;12.50;;;;;;;;;;750001;185;866196;-61
2024/03/13 09:29:39;;;;;;;17.50;11.90;;;;;;;;;;754532;185;918591;-60
2024/03/13 09:32:05;;;;;;;20.43;11.97;;;;;;;;;;751591;184;878631;-58
2024/03/13 09:34:31;;;;;;;21.13;14.50;;;;;;;;;;750459;186;911205;-58
2024/03/13 09:36:59;;;;;;;12.30;6.47;;;;;;;;;;756351;185;938086;-61
2024/03/13 09:39:22;;;;;;;19.23;11.57;;;;;;;;;;748931;186;919729;-58
2024/03/13 09:41:48;;;;;;;16.60;10.87;;;;;;;;;;751006;183;918868;-59
2024/03/13 09:44:15;;;;;;;23.23;10.80;;;;;;;;;;752253;186;919145;-60
2024/03/13 09:46:40;;;;;;;12.30;6.77;;;;;;;;;;751596;186;920393;-60
2024/03/13 09:49:06;;;;;;;11.50;8.17;;;;;;;;;;747518;186;919971;-62
2024/03/13 09:51:32;;;;;;;11.60;7.53;;;;;;;;;;748654;187;817607;-60
2024/03/13 09:53:57;;;;;;;13.80;8.80;;;;;;;;;;750384;183;818450;-58
2024/03/13 09:56:24;;;;;;;14.10;8.80;;;;;;;;;;750161;186;919594;-60
2024/03/13 09:58:50;;;;;;;11.40;7.90;;;;;;;;;;752031;183;891649;-58
2024/03/13 10:01:16;;;;;;;14.10;9.57;;;;;;;;;;754116;186;914724;-58
2024/03/13 10:03:42;;;;;;;15.13;8.27;;;;;;;;;;751713;186;857949;-60
2024/03/13 10:06:07;;;;;;;11.97;8.07;;;;;;;;;;747598;186;919201;-60
2024/03/13 10:08:33;;;;;;;11.00;6.27;;;;;;;;;;747848;186;911693;-60
2024/03/13 10:11:00;;;;;;;13.00;9.43;;;;;;;;;;743762;186;812126;-60
2024/03/13 10:13:26;;;;;;;11.57;7.83;;;;;;;;;;739016;186;915797;-58
2024/03/13 10:15:51;;;;;;;14.35;9.35;;;;;;;;;;748117;186;921910;-58
2024/03/13 10:18:17;;;;;;;15.83;10.97;;;;;;;;;;755130;186;922964;-61
2024/03/13 10:20:43;;;;;;;15.63;11.57;;;;;;;;;;752630;186;918447;-61
2024/03/13 10:23:11;;;;;;;19.50;12.63;;;;;;;;;;749205;185;925654;-60
2024/03/13 10:25:35;;;;;;;13.23;9.87;;;;;;;;;;753193;186;864326;-60
2024/03/13 10:28:01;;;;;;;18.00;9.60;;;;;;;;;;748080;186;817650;-60
2024/03/13 10:30:27;;;;;;;14.77;9.80;;;;;;;;;;756199;186;621153;-60
2024/03/13 10:32:54;;;;;;;17.50;10.02;;;;;;;;;;755244;184;618319;-60
2024/03/13 10:35:19;;;;;;;25.73;15.63;;;;;;;;;;753016;186;623896;-61
2024/03/13 10:37:45;;;;;;;22.10;13.77;;;;;;;;;;754549;183;636789;-60
2024/03/13 10:40:14;;;;;;;21.57;13.87;;;;;;;;;;749494;183;619300;-58
2024/03/13 10:42:37;;;;;;;19.07;12.27;;;;;;;;;;748577;185;625151;-58
2024/03/13 10:45:04;;;;;;;22.47;13.07;;;;;;;;;;756057;183;637097;-59
2024/03/13 10:47:28;;;;;;;20.40;13.23;;;;;;;;;;758166;185;625202;-58
2024/03/13 10:49:55;;;;;;;19.13;12.07;;;;;;;;;;758400;186;613664;-61
2024/03/13 10:52:21;;;;;;;24.63;15.13;;;;;;;;;;754748;186;631553;-60
2024/03/13 10:54:46;;;;;;;17.67;11.60;;;;;;;;;;752526;183;915804;-58
2024/03/13 10:57:15;;;;;;;24.73;16.83;;;;;;;;;;752373;186;914654;-58
2024/03/13 10:59:41;;;;;;;19.87;12.37;;;;;;;;;;754835;186;877586;-58
2024/03/13 11:02:07;;;;;;;26.57;16.47;;;;;;;;;;747688;186;921129;-58
2024/03/13 11:04:32;;;;;;;24.93;13.40;;;;;;;;;;751459;186;864170;-60
2024/03/13 11:06:58;;;;;;;22.30;14.23;;;;;;;;;;757538;186;908457;-59
2024/03/13 11:09:24;;;;;;;20.83;14.50;;;;;;;;;;751285;183;918982;-58
2024/03/13 11:11:51;;;;;;;21.23;14.23;;;;;;;;;;752258;186;832144;-59
2024/03/13 11:14:17;;;;;;;20.37;13.20;;;;;;;;;;758183;186;901162;-61
2024/03/13 11:16:41;;;;;;;22.37;15.50;;;;;;;;;;749078;186;796359;-60
2024/03/13 11:19:08;;;;;;;20.83;13.10;;;;;;;;;;751944;186;915723;-60
2024/03/13 11:21:35;;;;;;;20.63;14.03;;;;;;;;;;754621;186;880012;-60
2024/03/13 11:24:01;;;;;;;18.87;11.20;;;;;;;;;;752019;184;917362;-60
2024/03/13 11:26:26;;;;;;;14.03;8.10;;;;;;;;;;749898;186;911062;-60
2024/03/13 11:28:54;;;;;;;21.60;14.30;;;;;;;;;;746477;186;913318;-60
2024/03/13 11:31:18;;;;;;;22.80;13.70;;;;;;;;;;755750;186;918883;-60
2024/03/13 11:33:45;;;;;;;22.33;15.80;;;;;;;;;;752590;186;920592;-60
2024/03/13 11:36:10;;;;;;;15.67;10.40;;;;;;;;;;751320;186;920336;-58
2024/03/13 11:38:36;;;;;;;21.53;11.23;;;;;;;;;;754180;186;903961;-61
2024/03/13 11:41:03;;;;;;;18.30;13.70;;;;;;;;;;752978;186;919254;-58
2024/03/13 11:43:28;;;;;;;22.13;14.03;;;;;;;;;;747252;186;912019;-58
2024/03/13 11:45:53;;;;;;;24.27;15.40;;;;;;;;;;755304;186;897406;-58
2024/03/13 11:48:19;;;;;;;21.85;13.38;;;;;;;;;;747658;186;918535;-58
2024/03/13 11:50:51;;;;;;;23.70;14.50;;;;;;;;;;750451;184;918652;-58
2024/03/13 11:53:18;;;;;;;19.23;12.90;;;;;;;;;;751201;182;914434;-59
2024/03/13 11:55:43;;;;;;;12.93;10.00;;;;;;;;;;755269;184;921266;-58
2024/03/13 11:58:18;;;;;;;19.20;14.03;;;;;;;;;;740350;188;917247;-58
2024/03/13 12:00:44;;;;;;;16.00;9.17;;;;;;;;;;751445;183;916307;-58
2024/03/13 12:03:11;;;;;;;11.73;7.50;;;;;;;;;;750852;186;913037;-59
2024/03/13 12:05:36;;;;;;;13.97;9.03;;;;;;;;;;755251;185;818733;-59
2024/03/13 12:08:02;;;;;;;16.00;8.97;;;;;;;;;;751251;184;915354;-60
2024/03/13 12:10:27;;;;;;;12.93;7.13;;;;;;;;;;751068;185;923404;-58
2024/03/13 12:12:53;;;;;;;18.20;9.20;;;;;;;;;;754639;186;937884;-59
2024/03/13 12:15:19;;;;;;;10.40;8.27;;;;;;;;;;749007;186;917980;-59
2024/03/13 12:17:45;;;;;;;12.17;9.10;;;;;;;;;;749504;186;920723;-62
2024/03/13 12:20:12;;;;;;;15.13;9.95;;;;;;;;;;745600;186;920839;-60
2024/03/13 12:22:39;;;;;;;11.50;7.80;;;;;;;;;;754451;186;871619;-59
2024/03/13 12:25:04;;;;;;;16.30;10.57;;;;;;;;;;748809;183;813369;-62
2024/03/13 12:27:30;;;;;;;22.43;11.77;;;;;;;;;;749821;184;914617;-62
2024/03/13 12:29:55;;;;;;;19.90;12.17;;;;;;;;;;751270;186;818508;-62
2024/03/13 12:32:22;;;;;;;23.23;14.77;;;;;;;;;;748447;186;911872;-61
2024/03/13 12:34:48;;;;;;;12.80;10.03;;;;;;;;;;752062;186;810809;-61
2024/03/13 12:37:14;;;;;;;11.10;6.27;;;;;;;;;;755225;186;883943;-61
2024/03/13 12:39:40;;;;;;;13.00;9.10;;;;;;;;;;750071;186;916737;-64
2024/03/13 12:42:06;;;;;;;15.10;11.10;;;;;;;;;;749862;185;916262;-62
2024/03/13 12:44:31;;;;;;;18.53;12.37;;;;;;;;;;750641;186;820893;-61
2024/03/13 12:46:57;;;;;;;12.50;9.20;;;;;;;;;;749288;186;940955;-60
2024/03/13 12:49:23;;;;;;;15.60;10.27;;;;;;;;;;748209;183;844650;-59
2024/03/13 12:51:49;;;;;;;15.43;8.77;;;;;;;;;;746734;186;819030;-60
2024/03/13 12:54:15;;;;;;;12.48;9.55;;;;;;;;;;754759;186;917366;-60
2024/03/13 12:56:41;;;;;;;19.67;12.30;;;;;;;;;;749031;186;923391;-60
2024/03/13 12:59:09;;;;;;;15.07;10.35;;;;;;;;;;753282;186;917910;-60
2024/03/13 13:01:34;;;;;;;14.33;9.73;;;;;;;;;;758350;184;622952;-61
2024/03/13 13:03:59;;;;;;;17.37;8.17;;;;;;;;;;756171;184;816126;-61
2024/03/13 13:06:25;;;;;;;8.87;6.40;;;;;;;;;;754967;186;630198;-63
2024/03/13 13:08:51;;;;;;;14.23;8.15;;;;;;;;;;755874;185;915719;-59
2024/03/13 13:11:18;;;;;;;13.57;7.30;;;;;;;;;;750648;184;828618;-62
2024/03/13 13:13:44;;;;;;;13.23;9.07;;;;;;;;;;748931;186;920528;-62
2024/03/13 13:16:10;;;;;;;16.03;7.57;;;;;;;;;;749207;186;920686;-59
2024/03/13 13:18:41;;;;;;;11.93;7.73;;;;;;;;;;757370;186;1018710;-60
2024/03/13 13:21:06;;;;;;;12.20;8.13;;;;;;;;;;752990;186;920705;-60
2024/03/13 13:23:32;;;;;;;15.07;9.23;;;;;;;;;;753011;186;825622;-60
2024/03/13 13:25:57;;;;;;;10.20;8.17;;;;;;;;;;754882;186;919240;-60
2024/03/13 13:28:24;;;;;;;12.83;8.27;;;;;;;;;;750838;185;921504;-59
2024/03/13 13:30:49;;;;;;;12.60;8.07;;;;;;;;;;751921;186;921296;-63
2024/03/13 13:33:15;;;;;;;10.30;7.10;;;;;;;;;;750701;186;919029;-60
2024/03/13 13:35:41;;;;;;;16.43;8.13;;;;;;;;;;755051;186;920533;-59
2024/03/13 13:38:07;;;;;;;11.47;7.10;;;;;;;;;;752982;186;814284;-60
2024/03/13 13:40:33;;;;;;;8.57;5.17;;;;;;;;;;748865;186;816890;-62
2024/03/13 13:42:58;;;;;;;14.43;8.63;;;;;;;;;;752891;186;919366;-59
2024/03/13 13:45:24;;;;;;;13.60;10.80;;;;;;;;;;749451;186;918368;-59
2024/03/13 13:47:51;;;;;;;17.10;8.73;;;;;;;;;;745505;186;945823;-62
2024/03/13 13:50:18;;;;;;;20.42;12.98;;;;;;;;;;751523;185;923667;-62
2024/03/13 13:52:43;;;;;;;11.80;6.30;;;;;;;;;;742704;186;916443;-61
2024/03/13 13:55:10;;;;;;;15.13;9.33;;;;;;;;;;748078;184;913826;-60
2024/03/13 13:57:34;;;;;;;16.03;9.80;;;;;;;;;;752642;186;911258;-59
2024/03/13 14:00:00;;;;;;;13.37;9.07;;;;;;;;;;756237;186;915425;-60
2024/03/13 14:02:26;;;;;;;16.25;9.88;;;;;;;;;;749352;186;928349;-61
2024/03/13 14:04:53;;;;;;;13.33;8.80;;;;;;;;;;747997;186;919144;-59
2024/03/13 14:07:18;;;;;;;13.60;10.50;;;;;;;;;;757430;186;921046;-60
2024/03/13 14:09:44;;;;;;;16.90;10.00;;;;;;;;;;752631;183;919399;-59
2024/03/13 14:12:23;;;;;;;15.83;9.60;;;;;;;;;;749673;184;928712;-61
2024/03/13 14:14:45;;;;;;;15.83;10.13;;;;;;;;;;751007;185;837565;-62
2024/03/13 14:17:11;;;;;;;19.40;12.57;;;;;;;;;;754941;184;879114;-60
2024/03/13 14:19:39;;;;;;;8.70;5.27;;;;;;;;;;751665;185;819986;-60
2024/03/13 14:22:05;;;;;;;23.10;12.13;;;;;;;;;;752395;183;918469;-59
2024/03/13 14:24:31;;;;;;;18.87;13.57;;;;;;;;;;756110;185;915863;-59